Terminal Aerodrome Forecast
Issued by NWS Wilmington, OH

Current Version | Previous Version | Graphics & Text | Print | Product List | Glossary On
Versions: 1 2 3 4 5 6 7 8 9 10 11 12 13 14 15 16 17 18 19 20 21 22 23 24 25 26
000
FTUS41 KILN 041605 AAC
TAFILN
TAF AMD
KILN 041605Z 0416/0512 25016G24KT P6SM OVC080
     FM041700 25016G24KT 6SM -SHRA OVC040
     FM041900 25016G24KT 4SM -SHRA BR VCTS SCT015 OVC025CB
     FM042200 32013KT P6SM VCSH BKN015 OVC022
     FM050200 33012KT P6SM VCSH OVC015
     FM050600 32010KT P6SM VCSH OVC006=

USA.gov is the U.S. government's official web portal to all federal, state and local government web resources and services.